sensor_id;sensor_type;location;lat;lon;timestamp;P1;durP1;ratioP1;P2;durP2;ratioP2
48993;SDS011;34804;49.214;12.276;2024-03-08T00:02:15;32.63;;;15.02;;
48993;SDS011;34804;49.214;12.276;2024-03-08T00:04:41;30.92;;;15.07;;
48993;SDS011;34804;49.214;12.276;2024-03-08T00:07:08;31.75;;;14.52;;
48993;SDS011;34804;49.214;12.276;2024-03-08T00:09:35;30.85;;;14.65;;
48993;SDS011;34804;49.214;12.276;2024-03-08T00:12:02;31.17;;;14.65;;
48993;SDS011;34804;49.214;12.276;2024-03-08T00:14:29;31.88;;;14.88;;
48993;SDS011;34804;49.214;12.276;2024-03-08T00:16:56;32.47;;;14.82;;
48993;SDS011;34804;49.214;12.276;2024-03-08T00:19:23;32.20;;;14.25;;
48993;SDS011;34804;49.214;12.276;2024-03-08T00:21:50;28.98;;;14.27;;
48993;SDS011;34804;49.214;12.276;2024-03-08T00:24:17;32.75;;;14.73;;
48993;SDS011;34804;49.214;12.276;2024-03-08T00:26:43;30.02;;;14.57;;
48993;SDS011;34804;49.214;12.276;2024-03-08T00:29:10;32.40;;;15.18;;
48993;SDS011;34804;49.214;12.276;2024-03-08T00:31:39;33.47;;;15.95;;
48993;SDS011;34804;49.214;12.276;2024-03-08T00:34:06;33.40;;;15.38;;
48993;SDS011;34804;49.214;12.276;2024-03-08T00:36:33;38.67;;;16.33;;
48993;SDS011;34804;49.214;12.276;2024-03-08T00:39:00;35.00;;;16.85;;
48993;SDS011;34804;49.214;12.276;2024-03-08T00:41:28;34.15;;;16.52;;
48993;SDS011;34804;49.214;12.276;2024-03-08T00:43:55;36.00;;;17.10;;
48993;SDS011;34804;49.214;12.276;2024-03-08T00:46:21;38.92;;;17.60;;
48993;SDS011;34804;49.214;12.276;2024-03-08T00:48:48;30.17;;;13.45;;
48993;SDS011;34804;49.214;12.276;2024-03-08T00:51:15;27.73;;;13.98;;
48993;SDS011;34804;49.214;12.276;2024-03-08T00:53:42;25.52;;;13.35;;
48993;SDS011;34804;49.214;12.276;2024-03-08T00:56:09;31.02;;;14.68;;
48993;SDS011;34804;49.214;12.276;2024-03-08T00:58:36;29.77;;;13.82;;
48993;SDS011;34804;49.214;12.276;2024-03-08T01:01:03;31.00;;;15.30;;
48993;SDS011;34804;49.214;12.276;2024-03-08T01:03:31;33.10;;;14.98;;
48993;SDS011;34804;49.214;12.276;2024-03-08T01:05:58;33.08;;;15.05;;
48993;SDS011;34804;49.214;12.276;2024-03-08T01:08:27;32.85;;;14.88;;
48993;SDS011;34804;49.214;12.276;2024-03-08T01:10:54;30.60;;;14.60;;
48993;SDS011;34804;49.214;12.276;2024-03-08T01:13:22;29.25;;;15.13;;
48993;SDS011;34804;49.214;12.276;2024-03-08T01:15:49;32.20;;;14.45;;
48993;SDS011;34804;49.214;12.276;2024-03-08T01:18:15;30.48;;;14.77;;
48993;SDS011;34804;49.214;12.276;2024-03-08T01:20:43;31.42;;;14.57;;
48993;SDS011;34804;49.214;12.276;2024-03-08T01:23:10;40.22;;;15.50;;
48993;SDS011;34804;49.214;12.276;2024-03-08T01:25:36;31.20;;;14.13;;
48993;SDS011;34804;49.214;12.276;2024-03-08T01:28:04;29.48;;;14.93;;
48993;SDS011;34804;49.214;12.276;2024-03-08T01:30:31;34.60;;;16.73;;
48993;SDS011;34804;49.214;12.276;2024-03-08T01:32:59;30.75;;;14.73;;
48993;SDS011;34804;49.214;12.276;2024-03-08T01:35:26;31.40;;;16.30;;
48993;SDS011;34804;49.214;12.276;2024-03-08T01:37:53;34.03;;;16.10;;
48993;SDS011;34804;49.214;12.276;2024-03-08T01:40:20;34.22;;;14.68;;
48993;SDS011;34804;49.214;12.276;2024-03-08T01:42:48;33.67;;;15.60;;
48993;SDS011;34804;49.214;12.276;2024-03-08T01:45:15;34.70;;;15.55;;
48993;SDS011;34804;49.214;12.276;2024-03-08T01:47:43;37.00;;;15.77;;
48993;SDS011;34804;49.214;12.276;2024-03-08T01:50:10;31.92;;;14.57;;
48993;SDS011;34804;49.214;12.276;2024-03-08T01:52:37;31.55;;;15.35;;
48993;SDS011;34804;49.214;12.276;2024-03-08T01:55:04;28.02;;;14.18;;
48993;SDS011;34804;49.214;12.276;2024-03-08T01:57:34;29.58;;;14.63;;
48993;SDS011;34804;49.214;12.276;2024-03-08T02:00:01;30.23;;;14.55;;
48993;SDS011;34804;49.214;12.276;2024-03-08T02:02:34;28.60;;;14.30;;
48993;SDS011;34804;49.214;12.276;2024-03-08T02:05:03;31.50;;;14.88;;
48993;SDS011;34804;49.214;12.276;2024-03-08T02:07:31;32.65;;;15.27;;
48993;SDS011;34804;49.214;12.276;2024-03-08T02:09:58;32.83;;;15.65;;
48993;SDS011;34804;49.214;12.276;2024-03-08T02:12:25;33.15;;;15.27;;
48993;SDS011;34804;49.214;12.276;2024-03-08T02:14:53;33.58;;;15.05;;
48993;SDS011;34804;49.214;12.276;2024-03-08T02:17:20;32.42;;;15.40;;
48993;SDS011;34804;49.214;12.276;2024-03-08T02:19:47;33.10;;;14.73;;
48993;SDS011;34804;49.214;12.276;2024-03-08T02:22:14;34.85;;;15.07;;
48993;SDS011;34804;49.214;12.276;2024-03-08T02:24:40;32.58;;;15.65;;
48993;SDS011;34804;49.214;12.276;2024-03-08T02:27:07;34.25;;;14.98;;
48993;SDS011;34804;49.214;12.276;2024-03-08T02:29:38;31.13;;;15.10;;
48993;SDS011;34804;49.214;12.276;2024-03-08T02:32:07;30.52;;;14.57;;
48993;SDS011;34804;49.214;12.276;2024-03-08T02:34:34;33.25;;;15.88;;
48993;SDS011;34804;49.214;12.276;2024-03-08T02:37:01;31.35;;;14.40;;
48993;SDS011;34804;49.214;12.276;2024-03-08T02:39:28;31.58;;;14.63;;
48993;SDS011;34804;49.214;12.276;2024-03-08T02:41:55;34.40;;;15.35;;
48993;SDS011;34804;49.214;12.276;2024-03-08T02:44:21;35.00;;;16.77;;
48993;SDS011;34804;49.214;12.276;2024-03-08T02:46:48;31.83;;;15.95;;
48993;SDS011;34804;49.214;12.276;2024-03-08T02:49:16;34.85;;;15.10;;
48993;SDS011;34804;49.214;12.276;2024-03-08T02:51:43;35.33;;;16.27;;
48993;SDS011;34804;49.214;12.276;2024-03-08T02:54:10;32.20;;;15.63;;
48993;SDS011;34804;49.214;12.276;2024-03-08T02:56:37;32.40;;;14.95;;
48993;SDS011;34804;49.214;12.276;2024-03-08T02:59:04;34.42;;;16.98;;
48993;SDS011;34804;49.214;12.276;2024-03-08T03:01:31;33.45;;;16.02;;
48993;SDS011;34804;49.214;12.276;2024-03-08T03:03:59;34.97;;;16.33;;
48993;SDS011;34804;49.214;12.276;2024-03-08T03:06:26;33.80;;;14.57;;
48993;SDS011;34804;49.214;12.276;2024-03-08T03:08:53;32.80;;;15.10;;
48993;SDS011;34804;49.214;12.276;2024-03-08T03:11:20;34.83;;;15.43;;
48993;SDS011;34804;49.214;12.276;2024-03-08T03:13:48;32.33;;;15.35;;
48993;SDS011;34804;49.214;12.276;2024-03-08T03:16:19;36.38;;;17.27;;
48993;SDS011;34804;49.214;12.276;2024-03-08T03:18:46;34.63;;;15.90;;
48993;SDS011;34804;49.214;12.276;2024-03-08T03:21:13;38.40;;;17.30;;
48993;SDS011;34804;49.214;12.276;2024-03-08T03:23:41;36.78;;;16.92;;
48993;SDS011;34804;49.214;12.276;2024-03-08T03:26:11;33.75;;;16.10;;
48993;SDS011;34804;49.214;12.276;2024-03-08T03:28:38;32.63;;;15.98;;
48993;SDS011;34804;49.214;12.276;2024-03-08T03:31:06;33.58;;;15.90;;
48993;SDS011;34804;49.214;12.276;2024-03-08T03:33:36;32.97;;;15.70;;
48993;SDS011;34804;49.214;12.276;2024-03-08T03:36:03;34.95;;;15.65;;
48993;SDS011;34804;49.214;12.276;2024-03-08T03:38:31;35.03;;;16.58;;
48993;SDS011;34804;49.214;12.276;2024-03-08T03:40:59;36.63;;;15.85;;
48993;SDS011;34804;49.214;12.276;2024-03-08T03:43:32;33.60;;;17.42;;
48993;SDS011;34804;49.214;12.276;2024-03-08T03:45:59;35.65;;;16.58;;
48993;SDS011;34804;49.214;12.276;2024-03-08T03:48:26;33.30;;;15.25;;
48993;SDS011;34804;49.214;12.276;2024-03-08T03:50:53;31.90;;;15.07;;
48993;SDS011;34804;49.214;12.276;2024-03-08T03:53:20;32.10;;;15.02;;
48993;SDS011;34804;49.214;12.276;2024-03-08T03:55:47;28.05;;;14.52;;
48993;SDS011;34804;49.214;12.276;2024-03-08T03:58:14;32.58;;;16.08;;
48993;SDS011;34804;49.214;12.276;2024-03-08T04:00:41;30.83;;;15.13;;
48993;SDS011;34804;49.214;12.276;2024-03-08T04:03:09;35.42;;;14.77;;
48993;SDS011;34804;49.214;12.276;2024-03-08T04:05:36;31.83;;;16.75;;
48993;SDS011;34804;49.214;12.276;2024-03-08T04:08:03;34.10;;;16.02;;
48993;SDS011;34804;49.214;12.276;2024-03-08T04:10:30;36.40;;;18.00;;
48993;SDS011;34804;49.214;12.276;2024-03-08T04:12:57;34.13;;;15.75;;
48993;SDS011;34804;49.214;12.276;2024-03-08T04:15:24;32.15;;;14.45;;
48993;SDS011;34804;49.214;12.276;2024-03-08T04:17:51;31.65;;;15.50;;
48993;SDS011;34804;49.214;12.276;2024-03-08T04:20:18;35.78;;;14.98;;
48993;SDS011;34804;49.214;12.276;2024-03-08T04:22:45;33.70;;;15.18;;
48993;SDS011;34804;49.214;12.276;2024-03-08T04:25:15;34.35;;;15.23;;
48993;SDS011;34804;49.214;12.276;2024-03-08T04:27:42;33.78;;;16.10;;
48993;SDS011;34804;49.214;12.276;2024-03-08T04:30:09;29.85;;;15.20;;
48993;SDS011;34804;49.214;12.276;2024-03-08T04:32:36;30.85;;;14.30;;
48993;SDS011;34804;49.214;12.276;2024-03-08T04:35:04;29.40;;;13.90;;
48993;SDS011;34804;49.214;12.276;2024-03-08T04:37:31;30.48;;;14.57;;
48993;SDS011;34804;49.214;12.276;2024-03-08T04:39:58;31.50;;;15.48;;
48993;SDS011;34804;49.214;12.276;2024-03-08T04:42:28;33.50;;;15.70;;
48993;SDS011;34804;49.214;12.276;2024-03-08T04:44:56;32.88;;;16.10;;
48993;SDS011;34804;49.214;12.276;2024-03-08T04:47:24;32.28;;;15.20;;
48993;SDS011;34804;49.214;12.276;2024-03-08T04:49:51;31.80;;;14.98;;
48993;SDS011;34804;49.214;12.276;2024-03-08T04:52:18;30.55;;;14.65;;
48993;SDS011;34804;49.214;12.276;2024-03-08T04:54:45;31.30;;;14.27;;
48993;SDS011;34804;49.214;12.276;2024-03-08T04:57:12;35.38;;;16.38;;
48993;SDS011;34804;49.214;12.276;2024-03-08T04:59:39;31.30;;;16.13;;
48993;SDS011;34804;49.214;12.276;2024-03-08T05:02:06;35.38;;;16.23;;
48993;SDS011;34804;49.214;12.276;2024-03-08T05:04:33;37.58;;;16.83;;
48993;SDS011;34804;49.214;12.276;2024-03-08T05:07:00;37.38;;;16.50;;
48993;SDS011;34804;49.214;12.276;2024-03-08T05:09:27;37.42;;;17.63;;
48993;SDS011;34804;49.214;12.276;2024-03-08T05:11:55;37.72;;;17.40;;
48993;SDS011;34804;49.214;12.276;2024-03-08T05:14:23;34.05;;;15.10;;
48993;SDS011;34804;49.214;12.276;2024-03-08T05:16:51;32.97;;;14.75;;
48993;SDS011;34804;49.214;12.276;2024-03-08T05:19:18;34.72;;;16.10;;
48993;SDS011;34804;49.214;12.276;2024-03-08T05:21:46;29.75;;;15.05;;
48993;SDS011;34804;49.214;12.276;2024-03-08T05:24:14;35.03;;;16.20;;
48993;SDS011;34804;49.214;12.276;2024-03-08T05:26:45;31.45;;;15.98;;
48993;SDS011;34804;49.214;12.276;2024-03-08T05:29:12;29.13;;;14.32;;
48993;SDS011;34804;49.214;12.276;2024-03-08T05:34:15;33.47;;;15.35;;
48993;SDS011;34804;49.214;12.276;2024-03-08T05:36:42;38.58;;;16.88;;
48993;SDS011;34804;49.214;12.276;2024-03-08T05:39:11;76.60;;;33.08;;
48993;SDS011;34804;49.214;12.276;2024-03-08T05:41:38;61.00;;;25.52;;
48993;SDS011;34804;49.214;12.276;2024-03-08T05:44:06;49.85;;;21.23;;
48993;SDS011;34804;49.214;12.276;2024-03-08T05:46:34;38.08;;;18.25;;
48993;SDS011;34804;49.214;12.276;2024-03-08T05:49:05;29.70;;;14.23;;
48993;SDS011;34804;49.214;12.276;2024-03-08T05:51:33;28.50;;;13.90;;
48993;SDS011;34804;49.214;12.276;2024-03-08T05:54:01;31.08;;;15.05;;
48993;SDS011;34804;49.214;12.276;2024-03-08T05:56:37;38.25;;;17.48;;
48993;SDS011;34804;49.214;12.276;2024-03-08T05:59:04;36.55;;;15.93;;
48993;SDS011;34804;49.214;12.276;2024-03-08T06:01:31;46.25;;;21.67;;
48993;SDS011;34804;49.214;12.276;2024-03-08T06:03:59;38.47;;;18.23;;
48993;SDS011;34804;49.214;12.276;2024-03-08T06:06:26;33.97;;;17.77;;
48993;SDS011;34804;49.214;12.276;2024-03-08T06:08:53;34.67;;;16.58;;
48993;SDS011;34804;49.214;12.276;2024-03-08T06:11:20;32.15;;;14.63;;
48993;SDS011;34804;49.214;12.276;2024-03-08T06:13:47;31.35;;;15.52;;
48993;SDS011;34804;49.214;12.276;2024-03-08T06:16:14;36.10;;;15.45;;
48993;SDS011;34804;49.214;12.276;2024-03-08T06:18:41;29.52;;;15.10;;
48993;SDS011;34804;49.214;12.276;2024-03-08T06:21:09;32.08;;;16.20;;
48993;SDS011;34804;49.214;12.276;2024-03-08T06:23:38;33.25;;;15.88;;
48993;SDS011;34804;49.214;12.276;2024-03-08T06:26:05;33.33;;;15.55;;
48993;SDS011;34804;49.214;12.276;2024-03-08T06:28:32;33.90;;;15.55;;
48993;SDS011;34804;49.214;12.276;2024-03-08T06:30:59;30.52;;;15.38;;
48993;SDS011;34804;49.214;12.276;2024-03-08T06:33:26;31.13;;;16.15;;
48993;SDS011;34804;49.214;12.276;2024-03-08T06:35:54;35.50;;;16.88;;
48993;SDS011;34804;49.214;12.276;2024-03-08T06:38:24;33.70;;;16.25;;
48993;SDS011;34804;49.214;12.276;2024-03-08T06:40:54;32.38;;;16.73;;
48993;SDS011;34804;49.214;12.276;2024-03-08T06:43:21;33.92;;;15.38;;
48993;SDS011;34804;49.214;12.276;2024-03-08T06:45:48;33.70;;;16.38;;
48993;SDS011;34804;49.214;12.276;2024-03-08T06:48:18;31.27;;;16.42;;
48993;SDS011;34804;49.214;12.276;2024-03-08T06:50:46;33.95;;;15.60;;
48993;SDS011;34804;49.214;12.276;2024-03-08T06:53:14;39.97;;;17.67;;
48993;SDS011;34804;49.214;12.276;2024-03-08T06:55:43;36.00;;;17.77;;
48993;SDS011;34804;49.214;12.276;2024-03-08T06:58:10;35.90;;;16.92;;
48993;SDS011;34804;49.214;12.276;2024-03-08T07:00:37;34.40;;;17.02;;
48993;SDS011;34804;49.214;12.276;2024-03-08T07:03:07;34.13;;;18.00;;
48993;SDS011;34804;49.214;12.276;2024-03-08T07:05:38;41.70;;;19.23;;
48993;SDS011;34804;49.214;12.276;2024-03-08T07:08:06;39.50;;;19.95;;
48993;SDS011;34804;49.214;12.276;2024-03-08T07:10:33;47.03;;;21.38;;
48993;SDS011;34804;49.214;12.276;2024-03-08T07:13:01;56.17;;;25.50;;
48993;SDS011;34804;49.214;12.276;2024-03-08T07:15:28;42.78;;;20.58;;
48993;SDS011;34804;49.214;12.276;2024-03-08T07:17:55;43.03;;;21.05;;
48993;SDS011;34804;49.214;12.276;2024-03-08T07:20:22;43.50;;;21.85;;
48993;SDS011;34804;49.214;12.276;2024-03-08T07:22:49;45.28;;;20.55;;
48993;SDS011;34804;49.214;12.276;2024-03-08T07:25:19;42.08;;;19.60;;
48993;SDS011;34804;49.214;12.276;2024-03-08T07:27:51;37.85;;;19.13;;
48993;SDS011;34804;49.214;12.276;2024-03-08T07:30:22;45.55;;;22.08;;
48993;SDS011;34804;49.214;12.276;2024-03-08T07:33:10;47.72;;;21.92;;
48993;SDS011;34804;49.214;12.276;2024-03-08T07:35:41;39.75;;;20.63;;
48993;SDS011;34804;49.214;12.276;2024-03-08T07:38:08;42.45;;;20.42;;
48993;SDS011;34804;49.214;12.276;2024-03-08T07:40:36;45.60;;;21.48;;
48993;SDS011;34804;49.214;12.276;2024-03-08T07:43:10;42.20;;;21.60;;
48993;SDS011;34804;49.214;12.276;2024-03-08T07:45:38;44.90;;;22.42;;
48993;SDS011;34804;49.214;12.276;2024-03-08T07:48:05;46.30;;;22.08;;
48993;SDS011;34804;49.214;12.276;2024-03-08T07:50:37;50.85;;;24.27;;
48993;SDS011;34804;49.214;12.276;2024-03-08T07:53:06;43.47;;;21.27;;
48993;SDS011;34804;49.214;12.276;2024-03-08T07:55:34;42.10;;;22.35;;
48993;SDS011;34804;49.214;12.276;2024-03-08T07:58:02;45.05;;;21.40;;
48993;SDS011;34804;49.214;12.276;2024-03-08T08:00:29;47.42;;;24.13;;
48993;SDS011;34804;49.214;12.276;2024-03-08T08:02:58;46.60;;;23.90;;
48993;SDS011;34804;49.214;12.276;2024-03-08T08:05:25;51.20;;;24.65;;
48993;SDS011;34804;49.214;12.276;2024-03-08T08:07:52;48.90;;;23.33;;
48993;SDS011;34804;49.214;12.276;2024-03-08T08:10:20;49.30;;;23.42;;
48993;SDS011;34804;49.214;12.276;2024-03-08T08:12:52;39.33;;;22.15;;
48993;SDS011;34804;49.214;12.276;2024-03-08T08:15:19;44.30;;;22.40;;
48993;SDS011;34804;49.214;12.276;2024-03-08T08:17:46;46.20;;;22.88;;
48993;SDS011;34804;49.214;12.276;2024-03-08T08:20:18;45.05;;;22.60;;
48993;SDS011;34804;49.214;12.276;2024-03-08T08:22:45;44.00;;;21.83;;
48993;SDS011;34804;49.214;12.276;2024-03-08T08:25:14;44.00;;;22.42;;
48993;SDS011;34804;49.214;12.276;2024-03-08T08:27:41;41.88;;;20.77;;
48993;SDS011;34804;49.214;12.276;2024-03-08T08:30:09;44.00;;;21.40;;
48993;SDS011;34804;49.214;12.276;2024-03-08T08:32:37;47.08;;;22.60;;
48993;SDS011;34804;49.214;12.276;2024-03-08T08:35:11;47.13;;;21.27;;
48993;SDS011;34804;49.214;12.276;2024-03-08T08:37:39;42.63;;;20.23;;
48993;SDS011;34804;49.214;12.276;2024-03-08T08:40:06;38.85;;;19.38;;
48993;SDS011;34804;49.214;12.276;2024-03-08T08:42:41;41.53;;;20.23;;
48993;SDS011;34804;49.214;12.276;2024-03-08T08:45:08;39.92;;;19.45;;
48993;SDS011;34804;49.214;12.276;2024-03-08T08:47:43;36.67;;;17.20;;
48993;SDS011;34804;49.214;12.276;2024-03-08T08:50:12;28.38;;;15.90;;
48993;SDS011;34804;49.214;12.276;2024-03-08T08:52:39;30.95;;;15.88;;
48993;SDS011;34804;49.214;12.276;2024-03-08T08:55:20;33.08;;;15.68;;
48993;SDS011;34804;49.214;12.276;2024-03-08T08:57:48;26.85;;;14.60;;
48993;SDS011;34804;49.214;12.276;2024-03-08T09:00:15;29.35;;;14.63;;
48993;SDS011;34804;49.214;12.276;2024-03-08T09:02:42;31.05;;;15.63;;
48993;SDS011;34804;49.214;12.276;2024-03-08T09:05:10;27.55;;;15.02;;
48993;SDS011;34804;49.214;12.276;2024-03-08T09:07:38;26.35;;;13.90;;
48993;SDS011;34804;49.214;12.276;2024-03-08T09:10:05;25.30;;;13.63;;
48993;SDS011;34804;49.214;12.276;2024-03-08T09:12:43;29.13;;;14.55;;
48993;SDS011;34804;49.214;12.276;2024-03-08T09:15:10;25.27;;;12.77;;
48993;SDS011;34804;49.214;12.276;2024-03-08T09:17:38;22.17;;;12.73;;
48993;SDS011;34804;49.214;12.276;2024-03-08T09:20:09;21.83;;;11.68;;
48993;SDS011;34804;49.214;12.276;2024-03-08T09:22:44;25.88;;;12.52;;
48993;SDS011;34804;49.214;12.276;2024-03-08T09:25:12;25.17;;;12.73;;
48993;SDS011;34804;49.214;12.276;2024-03-08T09:27:39;22.92;;;12.20;;
48993;SDS011;34804;49.214;12.276;2024-03-08T09:30:06;24.50;;;11.90;;
48993;SDS011;34804;49.214;12.276;2024-03-08T09:32:34;24.02;;;13.18;;
48993;SDS011;34804;49.214;12.276;2024-03-08T09:35:01;24.77;;;12.85;;
48993;SDS011;34804;49.214;12.276;2024-03-08T09:37:28;21.45;;;11.50;;
48993;SDS011;34804;49.214;12.276;2024-03-08T09:39:55;24.10;;;12.98;;
48993;SDS011;34804;49.214;12.276;2024-03-08T09:42:22;24.10;;;11.85;;
48993;SDS011;34804;49.214;12.276;2024-03-08T09:44:49;23.10;;;11.60;;
48993;SDS011;34804;49.214;12.276;2024-03-08T09:47:16;24.08;;;12.15;;
48993;SDS011;34804;49.214;12.276;2024-03-08T09:49:44;24.77;;;12.73;;
48993;SDS011;34804;49.214;12.276;2024-03-08T09:52:12;20.83;;;11.40;;
48993;SDS011;34804;49.214;12.276;2024-03-08T09:54:40;23.77;;;12.18;;
48993;SDS011;34804;49.214;12.276;2024-03-08T09:57:10;20.33;;;11.40;;
48993;SDS011;34804;49.214;12.276;2024-03-08T09:59:37;21.75;;;12.07;;
48993;SDS011;34804;49.214;12.276;2024-03-08T10:02:04;21.90;;;11.45;;
48993;SDS011;34804;49.214;12.276;2024-03-08T10:04:31;24.05;;;12.55;;
48993;SDS011;34804;49.214;12.276;2024-03-08T10:07:00;19.10;;;11.23;;
48993;SDS011;34804;49.214;12.276;2024-03-08T10:09:28;19.92;;;11.23;;
48993;SDS011;34804;49.214;12.276;2024-03-08T10:11:58;18.00;;;10.32;;
48993;SDS011;34804;49.214;12.276;2024-03-08T10:14:25;19.98;;;10.68;;
48993;SDS011;34804;49.214;12.276;2024-03-08T10:16:55;17.20;;;10.73;;
48993;SDS011;34804;49.214;12.276;2024-03-08T10:19:27;18.55;;;10.23;;
48993;SDS011;34804;49.214;12.276;2024-03-08T10:21:58;18.13;;;10.10;;
48993;SDS011;34804;49.214;12.276;2024-03-08T10:24:25;18.60;;;10.65;;
48993;SDS011;34804;49.214;12.276;2024-03-08T10:26:53;18.92;;;10.98;;
48993;SDS011;34804;49.214;12.276;2024-03-08T10:29:24;20.23;;;10.85;;
48993;SDS011;34804;49.214;12.276;2024-03-08T10:31:51;22.52;;;10.95;;
48993;SDS011;34804;49.214;12.276;2024-03-08T10:34:18;19.13;;;8.98;;
48993;SDS011;34804;49.214;12.276;2024-03-08T10:36:46;16.73;;;9.27;;
48993;SDS011;34804;49.214;12.276;2024-03-08T10:39:21;15.95;;;9.60;;
48993;SDS011;34804;49.214;12.276;2024-03-08T10:41:52;18.38;;;10.43;;
48993;SDS011;34804;49.214;12.276;2024-03-08T10:50:07;16.85;;;9.70;;
48993;SDS011;34804;49.214;12.276;2024-03-08T10:53:00;14.35;;;9.02;;
48993;SDS011;34804;49.214;12.276;2024-03-08T10:55:29;16.77;;;8.75;;
48993;SDS011;34804;49.214;12.276;2024-03-08T10:57:59;17.02;;;9.23;;
48993;SDS011;34804;49.214;12.276;2024-03-08T11:00:27;14.57;;;8.18;;
48993;SDS011;34804;49.214;12.276;2024-03-08T11:02:55;13.70;;;7.75;;
48993;SDS011;34804;49.214;12.276;2024-03-08T11:05:36;17.95;;;8.98;;
48993;SDS011;34804;49.214;12.276;2024-03-08T11:10:50;16.02;;;8.73;;
48993;SDS011;34804;49.214;12.276;2024-03-08T11:15:59;15.32;;;8.90;;
48993;SDS011;34804;49.214;12.276;2024-03-08T11:18:27;13.93;;;8.15;;
48993;SDS011;34804;49.214;12.276;2024-03-08T11:20:54;13.27;;;8.00;;
48993;SDS011;34804;49.214;12.276;2024-03-08T11:23:24;13.85;;;8.45;;
48993;SDS011;34804;49.214;12.276;2024-03-08T11:25:52;12.90;;;8.13;;
48993;SDS011;34804;49.214;12.276;2024-03-08T11:28:20;14.05;;;8.13;;
48993;SDS011;34804;49.214;12.276;2024-03-08T11:33:29;14.38;;;8.10;;
48993;SDS011;34804;49.214;12.276;2024-03-08T11:38:41;11.65;;;7.10;;
48993;SDS011;34804;49.214;12.276;2024-03-08T11:41:10;13.77;;;7.75;;
48993;SDS011;34804;49.214;12.276;2024-03-08T11:43:44;16.38;;;9.02;;
48993;SDS011;34804;49.214;12.276;2024-03-08T11:46:12;11.48;;;7.47;;
48993;SDS011;34804;49.214;12.276;2024-03-08T11:48:41;12.77;;;8.13;;
48993;SDS011;34804;49.214;12.276;2024-03-08T11:51:08;12.73;;;8.02;;
48993;SDS011;34804;49.214;12.276;2024-03-08T11:53:38;12.82;;;7.60;;
48993;SDS011;34804;49.214;12.276;2024-03-08T11:56:09;12.30;;;6.90;;
48993;SDS011;34804;49.214;12.276;2024-03-08T11:58:38;12.60;;;7.57;;
48993;SDS011;34804;49.214;12.276;2024-03-08T12:01:06;13.35;;;7.38;;
48993;SDS011;34804;49.214;12.276;2024-03-08T12:03:40;14.55;;;7.78;;
48993;SDS011;34804;49.214;12.276;2024-03-08T12:06:09;13.75;;;7.28;;
48993;SDS011;34804;49.214;12.276;2024-03-08T12:08:36;10.73;;;6.07;;
48993;SDS011;34804;49.214;12.276;2024-03-08T12:11:04;12.40;;;6.63;;
48993;SDS011;34804;49.214;12.276;2024-03-08T12:13:31;12.95;;;7.10;;
48993;SDS011;34804;49.214;12.276;2024-03-08T12:16:01;12.10;;;7.75;;
48993;SDS011;34804;49.214;12.276;2024-03-08T12:18:38;10.40;;;6.40;;
48993;SDS011;34804;49.214;12.276;2024-03-08T12:21:12;13.23;;;6.93;;
48993;SDS011;34804;49.214;12.276;2024-03-08T12:23:47;11.30;;;6.88;;
48993;SDS011;34804;49.214;12.276;2024-03-08T12:26:29;13.93;;;8.55;;
48993;SDS011;34804;49.214;12.276;2024-03-08T12:31:53;11.63;;;7.30;;
48993;SDS011;34804;49.214;12.276;2024-03-08T12:34:22;12.57;;;8.05;;
48993;SDS011;34804;49.214;12.276;2024-03-08T12:36:49;11.00;;;7.13;;
48993;SDS011;34804;49.214;12.276;2024-03-08T12:39:21;11.73;;;7.07;;
48993;SDS011;34804;49.214;12.276;2024-03-08T12:41:49;12.25;;;6.60;;
48993;SDS011;34804;49.214;12.276;2024-03-08T12:44:19;12.18;;;7.43;;
48993;SDS011;34804;49.214;12.276;2024-03-08T12:46:48;11.55;;;6.53;;
48993;SDS011;34804;49.214;12.276;2024-03-08T12:49:18;11.63;;;6.95;;
48993;SDS011;34804;49.214;12.276;2024-03-08T12:51:48;11.13;;;6.68;;
48993;SDS011;34804;49.214;12.276;2024-03-08T12:54:15;10.05;;;6.40;;
48993;SDS011;34804;49.214;12.276;2024-03-08T12:56:42;12.23;;;6.43;;
48993;SDS011;34804;49.214;12.276;2024-03-08T12:59:09;10.93;;;7.00;;
48993;SDS011;34804;49.214;12.276;2024-03-08T13:01:39;11.52;;;7.85;;
48993;SDS011;34804;49.214;12.276;2024-03-08T13:04:06;12.80;;;7.95;;
48993;SDS011;34804;49.214;12.276;2024-03-08T13:06:37;12.13;;;7.88;;
48993;SDS011;34804;49.214;12.276;2024-03-08T13:09:04;11.30;;;7.63;;
48993;SDS011;34804;49.214;12.276;2024-03-08T13:11:32;11.35;;;8.15;;
48993;SDS011;34804;49.214;12.276;2024-03-08T13:14:03;11.88;;;7.90;;
48993;SDS011;34804;49.214;12.276;2024-03-08T13:16:34;10.98;;;6.45;;
48993;SDS011;34804;49.214;12.276;2024-03-08T13:19:01;10.52;;;6.88;;
48993;SDS011;34804;49.214;12.276;2024-03-08T13:21:28;9.65;;;6.38;;
48993;SDS011;34804;49.214;12.276;2024-03-08T13:23:56;11.77;;;7.35;;
48993;SDS011;34804;49.214;12.276;2024-03-08T13:26:25;9.90;;;6.93;;
48993;SDS011;34804;49.214;12.276;2024-03-08T13:28:57;10.65;;;7.68;;
48993;SDS011;34804;49.214;12.276;2024-03-08T13:31:25;10.90;;;7.28;;
48993;SDS011;34804;49.214;12.276;2024-03-08T13:33:52;10.82;;;6.85;;
48993;SDS011;34804;49.214;12.276;2024-03-08T13:36:24;11.85;;;7.30;;
48993;SDS011;34804;49.214;12.276;2024-03-08T13:38:55;11.15;;;7.35;;
48993;SDS011;34804;49.214;12.276;2024-03-08T13:41:25;10.65;;;7.25;;
48993;SDS011;34804;49.214;12.276;2024-03-08T13:43:53;14.40;;;8.35;;
48993;SDS011;34804;49.214;12.276;2024-03-08T13:46:22;11.57;;;7.35;;
48993;SDS011;34804;49.214;12.276;2024-03-08T13:48:50;12.55;;;7.50;;
48993;SDS011;34804;49.214;12.276;2024-03-08T13:51:19;12.02;;;7.00;;
48993;SDS011;34804;49.214;12.276;2024-03-08T13:53:48;11.15;;;6.72;;
48993;SDS011;34804;49.214;12.276;2024-03-08T13:56:15;10.90;;;7.63;;
48993;SDS011;34804;49.214;12.276;2024-03-08T13:58:42;10.48;;;7.18;;
48993;SDS011;34804;49.214;12.276;2024-03-08T14:01:10;10.82;;;7.25;;
48993;SDS011;34804;49.214;12.276;2024-03-08T14:03:39;10.13;;;7.45;;
48993;SDS011;34804;49.214;12.276;2024-03-08T14:06:09;11.43;;;7.00;;
48993;SDS011;34804;49.214;12.276;2024-03-08T14:08:50;9.95;;;7.20;;
48993;SDS011;34804;49.214;12.276;2024-03-08T14:11:17;11.63;;;7.85;;
48993;SDS011;34804;49.214;12.276;2024-03-08T14:13:46;10.80;;;7.28;;
48993;SDS011;34804;49.214;12.276;2024-03-08T14:16:14;9.52;;;6.90;;
48993;SDS011;34804;49.214;12.276;2024-03-08T14:18:41;10.75;;;6.53;;
48993;SDS011;34804;49.214;12.276;2024-03-08T14:21:08;12.23;;;7.95;;
48993;SDS011;34804;49.214;12.276;2024-03-08T14:23:36;12.25;;;7.40;;
48993;SDS011;34804;49.214;12.276;2024-03-08T14:26:03;11.23;;;7.32;;
48993;SDS011;34804;49.214;12.276;2024-03-08T14:28:33;10.75;;;7.25;;
48993;SDS011;34804;49.214;12.276;2024-03-08T14:31:01;12.25;;;7.50;;
48993;SDS011;34804;49.214;12.276;2024-03-08T14:33:32;11.32;;;7.82;;
48993;SDS011;34804;49.214;12.276;2024-03-08T14:35:59;10.23;;;6.57;;
48993;SDS011;34804;49.214;12.276;2024-03-08T14:38:27;12.38;;;7.75;;
48993;SDS011;34804;49.214;12.276;2024-03-08T14:40:54;11.05;;;7.47;;
48993;SDS011;34804;49.214;12.276;2024-03-08T14:43:22;12.15;;;7.75;;